This is the latest recevied weather packets stored in our database for station/object OK1FRN-6. If no packets are shown the sender has not sent any weather packets the latest 10 day(s).
| Time | Temp. | Humidity | Pressure | Rain* | Wind** | Luminosity | Snow |
|---|---|---|---|---|---|---|---|
| 1777498370 | 2.78° C | 43% | 1030.8 hPa | - | - | - | - |
| 1777497453 | 3.33° C | 41% | 1030.7 hPa | - | - | - | - |
| 1777497148 | 3.33° C | 41% | 1030.7 hPa | - | - | - | - |
| 1777496843 | 3.89° C | 41% | 1030.6 hPa | - | - | - | - |
| 1777496537 | 3.89° C | 40% | 1030.5 hPa | - | - | - | - |
| 1777495926 | 4.44° C | 39% | 1030.5 hPa | - | - | - | - |
| 1777494705 | 5° C | 37% | 1030.3 hPa | - | - | - | - |
| 1777491650 | 6.67° C | 34% | 1029.6 hPa | - | - | - | - |
| 1777490733 | 7.22° C | 33% | 1029.5 hPa | - | - | - | - |
| 1777490427 | 7.22° C | 33% | 1029.5 hPa | - | - | - | - |
| 1777490122 | 7.22° C | 32% | 1029.4 hPa | - | - | - | - |
| 1777488593 | 8.33° C | 31% | 1029 hPa | - | - | - | - |
| 1777486759 | 9.44° C | 29% | 1028.2 hPa | - | - | - | - |
| 1777485842 | 10° C | 28% | 1028 hPa | - | - | - | - |
| 1777485536 | 10.56° C | 28% | 1027.9 hPa | - | - | - | - |
| 1777485230 | 10.56° C | 28% | 1027.8 hPa | - | - | - | - |
| 1777484313 | 11.11° C | 28% | 1027.4 hPa | - | - | - | - |
| 1777484006 | 11.67° C | 28% | 1027.3 hPa | - | - | - | - |
| 1777483395 | 11.67° C | 28% | 1027.1 hPa | - | - | - | - |
| 1777483089 | 12.22° C | 27% | 1027.1 hPa | - | - | - | - |
| 1777482783 | 12.22° C | 27% | 1027 hPa | - | - | - | - |
| 1777482477 | 12.78° C | 27% | 1026.9 hPa | - | - | - | - |
| 1777482171 | 12.78° C | 27% | 1026.9 hPa | - | - | - | - |
| 1777481865 | 13.33° C | 27% | 1026.9 hPa | - | - | - | - |
| 1777481253 | 13.33° C | 26% | 1026.8 hPa | - | - | - | - |
* Rain since midnight (hover to see other rain measurements)
** Current wind speed in m/s (hover to see current wind gust speed)